createdAt,value
2018-10-06T00:01:18.496Z,15.50
2018-10-06T00:03:46.860Z,16.10
2018-10-06T00:06:15.262Z,11.97
2018-10-06T00:08:43.440Z,14.70
2018-10-06T00:11:11.793Z,14.47
2018-10-06T00:13:40.141Z,17.80
2018-10-06T00:16:08.357Z,16.33
2018-10-06T00:18:36.648Z,11.77
2018-10-06T00:21:05.095Z,12.40
2018-10-06T00:23:33.344Z,16.37
2018-10-06T00:26:01.822Z,15.97
2018-10-06T00:28:30.074Z,13.23
2018-10-06T00:30:58.242Z,12.17
2018-10-06T00:33:26.524Z,16.47
2018-10-06T00:35:54.680Z,12.53
2018-10-06T00:38:22.943Z,11.83
2018-10-06T00:40:51.190Z,15.53
2018-10-06T00:43:19.400Z,14.27
2018-10-06T00:45:47.756Z,18.57
2018-10-06T00:48:16.074Z,14.93
2018-10-06T00:50:44.339Z,15.93
2018-10-06T00:53:12.523Z,15.30
2018-10-06T00:55:40.823Z,16.03
2018-10-06T00:58:09.135Z,19.60
2018-10-06T01:00:37.429Z,13.13
2018-10-06T01:03:05.706Z,12.47
2018-10-06T01:05:34.001Z,13.53
2018-10-06T01:08:02.366Z,16.03
2018-10-06T01:10:30.551Z,15.70
2018-10-06T01:12:58.757Z,11.07
2018-10-06T01:15:26.981Z,14.40
2018-10-06T01:17:55.149Z,15.27
2018-10-06T01:20:23.353Z,11.47
2018-10-06T01:22:51.758Z,13.67
2018-10-06T01:25:20.037Z,15.70
2018-10-06T01:27:48.192Z,15.23
2018-10-06T01:30:16.519Z,12.57
2018-10-06T01:32:44.664Z,13.50
2018-10-06T01:35:12.908Z,10.77
2018-10-06T01:37:42.376Z,12.03
2018-10-06T01:40:10.659Z,11.83
2018-10-06T01:42:38.852Z,13.30
2018-10-06T01:45:07.189Z,13.30
2018-10-06T01:47:35.929Z,15.10
2018-10-06T01:50:04.404Z,12.77
2018-10-06T01:52:32.555Z,13.57
2018-10-06T01:55:00.800Z,13.67
2018-10-06T01:57:29.044Z,15.73
2018-10-06T01:59:57.330Z,14.87
2018-10-06T02:02:25.607Z,14.70
2018-10-06T02:04:53.850Z,12.07
2018-10-06T02:07:22.057Z,13.60
2018-10-06T02:09:50.512Z,15.07
2018-10-06T02:12:18.623Z,19.93
2018-10-06T02:14:46.806Z,14.00
2018-10-06T02:17:14.920Z,13.57
2018-10-06T02:19:43.098Z,15.63
2018-10-06T02:22:11.212Z,11.37
2018-10-06T02:24:39.410Z,10.23
2018-10-06T02:27:07.674Z,10.97
2018-10-06T02:29:35.811Z,9.33
2018-10-06T02:32:03.976Z,10.67
2018-10-06T02:34:32.244Z,9.00
2018-10-06T02:37:00.581Z,10.67
2018-10-06T02:39:28.697Z,9.67
2018-10-06T02:41:56.834Z,12.07
2018-10-06T02:44:24.950Z,9.73
2018-10-06T02:46:53.119Z,10.53
2018-10-06T02:49:21.327Z,12.20
2018-10-06T02:51:49.442Z,12.67
2018-10-06T02:54:17.654Z,10.47
2018-10-06T02:56:45.863Z,10.33
2018-10-06T02:59:14.093Z,13.80
2018-10-06T03:01:42.304Z,13.87
2018-10-06T03:04:10.481Z,11.87
2018-10-06T03:06:38.698Z,12.27
2018-10-06T03:09:06.958Z,12.83
2018-10-06T03:11:35.501Z,10.90
2018-10-06T03:14:03.714Z,17.30
2018-10-06T03:16:31.910Z,14.03
2018-10-06T03:19:00.192Z,12.80
2018-10-06T03:21:28.512Z,14.00
2018-10-06T03:23:56.738Z,11.90
2018-10-06T03:26:24.997Z,12.57
2018-10-06T03:28:53.208Z,11.83
2018-10-06T03:31:21.306Z,14.50
2018-10-06T03:33:49.590Z,16.40
2018-10-06T03:36:17.824Z,17.37
2018-10-06T03:38:45.983Z,15.37
2018-10-06T03:41:15.400Z,15.50
2018-10-06T03:43:43.611Z,12.13
2018-10-06T03:46:12.389Z,15.30
2018-10-06T03:48:40.889Z,14.77
2018-10-06T03:51:09.112Z,14.30
2018-10-06T03:53:37.436Z,13.70
2018-10-06T03:56:05.770Z,13.67
2018-10-06T03:58:34.151Z,15.13
2018-10-06T04:01:02.567Z,13.83
2018-10-06T04:03:30.647Z,12.33
2018-10-06T04:05:58.955Z,15.90
2018-10-06T04:08:27.097Z,10.77
2018-10-06T04:10:55.308Z,15.13
2018-10-06T04:13:26.664Z,13.63
2018-10-06T04:15:57.438Z,14.93
2018-10-06T04:18:25.830Z,12.57
2018-10-06T04:20:54.054Z,16.37
2018-10-06T04:23:22.486Z,14.70
2018-10-06T04:25:50.788Z,17.13
2018-10-06T04:28:18.979Z,13.53
2018-10-06T04:30:47.079Z,12.53
2018-10-06T04:33:15.319Z,17.43
2018-10-06T04:35:43.466Z,16.30
2018-10-06T04:38:11.799Z,15.70
2018-10-06T04:40:40.061Z,16.47
2018-10-06T04:43:08.355Z,14.13
2018-10-06T04:45:36.645Z,16.23
2018-10-06T04:48:04.938Z,15.97
2018-10-06T04:50:33.250Z,14.57
2018-10-06T04:53:01.496Z,14.70
2018-10-06T04:55:30.250Z,15.10
2018-10-06T04:57:58.465Z,15.27
2018-10-06T05:00:26.757Z,17.47
2018-10-06T05:02:55.232Z,19.17
2018-10-06T05:05:23.529Z,19.70
2018-10-06T05:07:51.743Z,21.77
2018-10-06T05:10:20.023Z,23.90
2018-10-06T05:12:48.244Z,16.50
2018-10-06T05:15:16.670Z,22.60
2018-10-06T05:17:45.096Z,19.67
2018-10-06T05:20:13.310Z,20.83
2018-10-06T05:22:41.619Z,16.87
2018-10-06T05:25:09.877Z,23.30
2018-10-06T05:27:38.100Z,23.43
2018-10-06T05:30:06.387Z,17.53
2018-10-06T05:32:34.686Z,19.90
2018-10-06T05:35:02.959Z,18.87
2018-10-06T05:37:31.285Z,17.33
2018-10-06T05:39:59.919Z,18.70
2018-10-06T05:42:28.116Z,17.13
2018-10-06T05:44:56.352Z,21.20
2018-10-06T05:47:24.948Z,18.90
2018-10-06T05:49:53.231Z,25.47
2018-10-06T05:52:22.522Z,22.40
2018-10-06T05:54:51.211Z,20.73
2018-10-06T05:57:19.552Z,20.47
2018-10-06T05:59:47.757Z,17.17
2018-10-06T06:02:16.066Z,18.63
2018-10-06T06:04:44.258Z,20.00
2018-10-06T06:07:12.486Z,25.13
2018-10-06T06:09:42.010Z,21.70
2018-10-06T06:12:10.463Z,18.87
2018-10-06T06:14:38.672Z,18.13
2018-10-06T06:17:07.071Z,20.13
2018-10-06T06:19:35.238Z,21.27
2018-10-06T06:22:03.427Z,21.57
2018-10-06T06:24:32.029Z,20.17
2018-10-06T06:27:00.314Z,26.50
2018-10-06T06:29:28.668Z,21.30
2018-10-06T06:31:57.069Z,26.23
2018-10-06T06:34:25.422Z,21.03
2018-10-06T06:36:53.697Z,23.83
2018-10-06T06:39:22.085Z,20.93
2018-10-06T06:41:50.369Z,21.93
2018-10-06T06:44:18.787Z,21.53
2018-10-06T06:46:47.077Z,26.07
2018-10-06T06:49:15.377Z,21.07
2018-10-06T06:51:43.666Z,24.83
2018-10-06T06:54:11.927Z,19.27
2018-10-06T06:56:40.204Z,21.20
2018-10-06T06:59:08.468Z,22.40
2018-10-06T07:01:36.661Z,22.13
2018-10-06T07:04:05.165Z,25.63
2018-10-06T07:06:33.664Z,24.50
2018-10-06T07:09:02.058Z,26.00
2018-10-06T07:11:30.382Z,26.17
2018-10-06T07:14:18.158Z,22.03
2018-10-06T07:16:46.707Z,22.10
2018-10-06T07:19:21.272Z,21.93
2018-10-06T07:21:49.785Z,25.83
2018-10-06T07:24:18.119Z,19.87
2018-10-06T07:26:46.681Z,23.87
2018-10-06T07:29:15.179Z,24.60
2018-10-06T07:31:45.262Z,22.57
2018-10-06T07:34:13.624Z,23.90
2018-10-06T07:36:45.025Z,20.87
2018-10-06T07:39:13.367Z,20.80
2018-10-06T07:41:54.125Z,22.10
2018-10-06T07:44:22.493Z,20.67
2018-10-06T07:46:51.612Z,20.47
2018-10-06T07:49:20.378Z,21.27
2018-10-06T07:51:48.806Z,21.67
2018-10-06T07:54:17.309Z,19.97
2018-10-06T07:56:45.699Z,18.83
2018-10-06T07:59:14.052Z,21.03
2018-10-06T08:01:42.276Z,19.17
2018-10-06T08:04:10.569Z,18.20
2018-10-06T08:06:39.705Z,16.33
2018-10-06T08:09:08.648Z,19.03
2018-10-06T08:11:36.841Z,22.97
2018-10-06T08:14:05.049Z,17.30
2018-10-06T08:16:33.291Z,19.53
2018-10-06T08:19:01.818Z,17.77
2018-10-06T08:21:30.357Z,18.57
2018-10-06T08:23:58.736Z,18.03
2018-10-06T08:26:26.946Z,22.97
2018-10-06T08:28:55.381Z,21.73
2018-10-06T08:31:23.928Z,18.97
2018-10-06T08:33:52.480Z,18.47
2018-10-06T08:36:20.816Z,16.33
2018-10-06T08:38:49.180Z,18.73
2018-10-06T08:41:18.099Z,18.93
2018-10-06T08:43:46.510Z,17.23
2018-10-06T08:46:14.771Z,19.00
2018-10-06T08:48:43.072Z,17.93
2018-10-06T08:51:11.387Z,20.37
2018-10-06T08:56:25.314Z,19.97
2018-10-06T08:58:54.063Z,20.20
2018-10-06T09:01:23.473Z,18.87
2018-10-06T09:03:52.243Z,16.70
2018-10-06T09:06:20.819Z,19.17
2018-10-06T09:08:49.522Z,18.50
2018-10-06T09:11:26.950Z,18.53
2018-10-06T09:13:55.677Z,23.70
2018-10-06T09:16:24.426Z,22.80
2018-10-06T09:18:53.122Z,16.37
2018-10-06T09:21:22.097Z,17.07
2018-10-06T09:23:50.818Z,18.00
2018-10-06T09:26:19.420Z,20.17
2018-10-06T09:28:48.854Z,26.87
2018-10-06T09:31:17.726Z,21.20
2018-10-06T09:33:46.338Z,19.70
2018-10-06T09:36:15.153Z,17.43
2018-10-06T09:38:43.827Z,18.23
2018-10-06T09:41:12.376Z,19.13
2018-10-06T09:43:40.854Z,18.33
2018-10-06T09:46:09.385Z,20.67
2018-10-06T09:48:37.946Z,20.73
2018-10-06T09:51:06.610Z,23.30
2018-10-06T09:53:35.718Z,20.17
2018-10-06T09:56:04.477Z,19.27
2018-10-06T09:58:33.233Z,18.43
2018-10-06T10:01:07.495Z,20.50
2018-10-06T10:03:41.482Z,19.10
2018-10-06T10:06:10.182Z,17.80
2018-10-06T10:08:38.830Z,17.60
2018-10-06T10:11:07.499Z,19.83
2018-10-06T10:13:36.778Z,16.80
2018-10-06T10:16:05.632Z,21.03
2018-10-06T10:18:34.518Z,15.00
2018-10-06T10:21:03.436Z,17.33
2018-10-06T10:23:32.710Z,19.83
2018-10-06T10:26:01.501Z,15.93
2018-10-06T10:28:30.180Z,15.17
2018-10-06T10:30:58.747Z,17.97
2018-10-06T10:33:27.390Z,14.33
2018-10-06T10:35:56.304Z,16.80
2018-10-06T10:38:24.978Z,18.60
2018-10-06T10:40:53.745Z,17.53
2018-10-06T10:43:22.221Z,14.80
2018-10-06T10:45:51.507Z,14.67
2018-10-06T10:48:21.971Z,18.23
2018-10-06T10:50:50.871Z,14.83
2018-10-06T10:53:19.510Z,14.97
2018-10-06T10:55:48.219Z,16.40
2018-10-06T10:58:16.950Z,14.90
2018-10-06T11:00:46.020Z,15.90
2018-10-06T11:03:14.570Z,12.88
2018-10-06T11:05:43.620Z,15.72
2018-10-06T11:08:12.056Z,18.50
2018-10-06T11:10:40.883Z,16.07
2018-10-06T11:13:09.724Z,14.78
2018-10-06T11:15:38.268Z,13.28
2018-10-06T11:18:06.926Z,14.05
2018-10-06T11:20:35.447Z,18.45
2018-10-06T11:26:34.677Z,14.10
2018-10-06T11:29:05.304Z,14.95
2018-10-06T11:31:33.916Z,13.88
2018-10-06T11:34:03.473Z,13.83
2018-10-06T11:36:32.221Z,13.80
2018-10-06T11:39:01.409Z,13.78
2018-10-06T11:41:41.330Z,11.48
2018-10-06T11:44:10.385Z,15.85
2018-10-06T11:49:32.018Z,13.48
2018-10-06T11:52:00.812Z,11.12
2018-10-06T11:54:30.771Z,9.88
2018-10-06T11:56:59.554Z,11.18
2018-10-06T11:59:29.202Z,10.28
2018-10-06T12:01:57.913Z,15.53
2018-10-06T12:04:26.491Z,11.25
2018-10-06T12:06:55.069Z,16.45
2018-10-06T12:09:23.639Z,11.00
2018-10-06T12:11:54.051Z,10.85
2018-10-06T12:14:23.792Z,11.03
2018-10-06T12:16:54.276Z,10.58
2018-10-06T12:19:22.999Z,12.65
2018-10-06T12:21:51.929Z,10.82
2018-10-06T12:24:20.980Z,9.90
2018-10-06T12:26:50.496Z,8.25
2018-10-06T12:29:26.073Z,11.88
2018-10-06T12:32:01.158Z,9.00
2018-10-06T12:34:32.979Z,6.30
2018-10-06T12:39:54.667Z,6.28
2018-10-06T12:42:35.628Z,5.70
2018-10-06T12:45:24.639Z,5.03
2018-10-06T12:47:54.391Z,7.25
2018-10-06T12:50:23.272Z,7.42
2018-10-06T12:52:52.037Z,7.17
2018-10-06T12:55:22.003Z,6.70
2018-10-06T13:00:46.551Z,7.53
2018-10-06T13:06:09.138Z,10.25
2018-10-06T13:14:23.652Z,8.50
2018-10-06T13:22:40.700Z,9.40
2018-10-06T13:25:10.969Z,7.50
2018-10-06T13:30:32.573Z,9.08
2018-10-06T13:36:10.546Z,7.08
2018-10-06T13:38:39.558Z,8.58
2018-10-06T13:41:08.373Z,11.05
2018-10-06T13:43:37.081Z,9.73
2018-10-06T13:48:58.203Z,6.80
2018-10-06T13:51:29.834Z,7.53
2018-10-06T13:53:59.302Z,8.95
2018-10-06T14:02:14.662Z,8.03
2018-10-06T14:04:43.543Z,9.48
2018-10-06T14:07:12.908Z,6.95
2018-10-06T14:09:42.315Z,10.15
2018-10-06T14:12:11.025Z,9.48
2018-10-06T14:14:39.931Z,9.35
2018-10-06T14:17:08.581Z,8.78
2018-10-06T14:19:37.492Z,9.00
2018-10-06T14:22:06.618Z,7.10
2018-10-06T14:24:35.611Z,9.55
2018-10-06T14:27:04.297Z,8.53
2018-10-06T14:29:32.838Z,13.25
2018-10-06T14:32:01.490Z,7.90
2018-10-06T14:34:30.550Z,12.10
2018-10-06T14:36:59.302Z,10.87
2018-10-06T14:39:28.529Z,8.33
2018-10-06T14:41:57.254Z,11.70
2018-10-06T14:44:26.314Z,11.67
2018-10-06T14:46:55.661Z,16.33
2018-10-06T14:49:25.098Z,11.50
2018-10-06T14:51:53.663Z,11.63
2018-10-06T14:54:22.423Z,14.40
2018-10-06T14:56:51.153Z,10.40
2018-10-06T14:59:19.870Z,12.53
2018-10-06T15:01:48.456Z,12.03
2018-10-06T15:04:17.065Z,10.00
2018-10-06T15:06:49.242Z,11.57
2018-10-06T15:09:19.639Z,12.43
2018-10-06T15:11:49.681Z,16.83
2018-10-06T15:14:18.091Z,9.43
2018-10-06T15:16:46.989Z,12.50
2018-10-06T15:19:16.381Z,11.77
2018-10-06T15:21:45.578Z,12.70
2018-10-06T15:24:14.932Z,17.03
2018-10-06T15:26:44.158Z,15.67
2018-10-06T15:29:13.731Z,14.17
2018-10-06T15:31:43.224Z,12.63
2018-10-06T15:34:12.773Z,15.10
2018-10-06T15:36:41.949Z,13.13
2018-10-06T15:39:13.592Z,17.93
2018-10-06T15:41:42.993Z,13.73
2018-10-06T15:44:12.804Z,27.87
2018-10-06T15:46:42.019Z,24.03
2018-10-06T15:49:10.868Z,19.10
2018-10-06T15:51:40.098Z,16.23
2018-10-06T15:54:09.688Z,17.17
2018-10-06T15:56:39.047Z,24.63
2018-10-06T15:59:09.927Z,15.83
2018-10-06T16:01:39.670Z,17.57
2018-10-06T16:04:09.581Z,17.83
2018-10-06T16:06:39.142Z,22.03
2018-10-06T16:09:07.861Z,28.23
2018-10-06T16:11:37.252Z,28.37
2018-10-06T16:14:05.775Z,24.20
2018-10-06T16:16:34.261Z,31.00
2018-10-06T16:19:02.925Z,24.20
2018-10-06T16:21:31.668Z,19.60
2018-10-06T16:24:00.337Z,17.50
2018-10-06T16:26:28.895Z,19.97
2018-10-06T16:28:57.564Z,21.60
2018-10-06T16:31:26.375Z,22.70
2018-10-06T16:33:55.035Z,20.43
2018-10-06T16:36:23.736Z,26.83
2018-10-06T16:38:55.278Z,39.97
2018-10-06T16:41:23.811Z,32.97
2018-10-06T16:43:52.494Z,31.13
2018-10-06T16:46:21.084Z,23.27
2018-10-06T16:48:49.747Z,30.23
2018-10-06T16:51:18.464Z,28.73
2018-10-06T16:53:47.157Z,45.70
2018-10-06T16:56:15.680Z,18.03
2018-10-06T16:58:45.312Z,21.03
2018-10-06T17:01:14.023Z,21.23
2018-10-06T17:03:42.668Z,24.27
2018-10-06T17:06:11.344Z,21.80
2018-10-06T17:08:40.850Z,18.40
2018-10-06T17:11:09.612Z,20.03
2018-10-06T17:13:38.233Z,24.13
2018-10-06T17:16:07.075Z,22.03
2018-10-06T17:18:35.681Z,24.93
2018-10-06T17:21:04.146Z,24.90
2018-10-06T17:23:32.686Z,24.93
2018-10-06T17:26:01.235Z,22.33
2018-10-06T17:28:29.670Z,27.67
2018-10-06T17:31:00.607Z,28.90
2018-10-06T17:33:29.510Z,25.97
2018-10-06T17:35:58.499Z,29.00
2018-10-06T17:38:26.897Z,31.43
2018-10-06T17:40:55.705Z,31.47
2018-10-06T17:43:24.607Z,30.40
2018-10-06T17:45:53.444Z,32.97
2018-10-06T17:48:22.009Z,35.03
2018-10-06T17:50:50.741Z,36.67
2018-10-06T17:53:19.089Z,37.37
2018-10-06T17:55:47.731Z,40.57
2018-10-06T17:58:16.309Z,40.77
2018-10-06T18:00:44.964Z,41.70
2018-10-06T18:03:13.743Z,42.93
2018-10-06T18:05:42.514Z,42.80
2018-10-06T18:08:10.960Z,42.70
2018-10-06T18:10:45.477Z,41.00
2018-10-06T18:13:14.069Z,44.80
2018-10-06T18:15:42.592Z,49.37
2018-10-06T18:18:11.350Z,41.70
2018-10-06T18:20:39.990Z,49.70
2018-10-06T18:23:08.517Z,46.53
2018-10-06T18:25:37.005Z,43.87
2018-10-06T18:28:05.665Z,48.13
2018-10-06T18:30:34.392Z,48.77
2018-10-06T18:33:03.170Z,43.83
2018-10-06T18:35:33.115Z,44.37
2018-10-06T18:38:01.847Z,42.17
2018-10-06T18:40:30.360Z,48.60
2018-10-06T18:42:59.209Z,58.10
2018-10-06T18:45:27.554Z,51.00
2018-10-06T18:47:56.063Z,49.10
2018-10-06T18:50:24.851Z,51.47
2018-10-06T18:52:53.625Z,46.67
2018-10-06T18:55:22.100Z,45.30
2018-10-06T18:57:50.423Z,44.77
2018-10-06T19:00:18.907Z,45.70
2018-10-06T19:02:47.368Z,54.57
2018-10-06T19:05:15.815Z,50.60
2018-10-06T19:07:44.321Z,48.80
2018-10-06T19:10:12.890Z,44.83
2018-10-06T19:12:41.368Z,51.83
2018-10-06T19:15:09.945Z,60.37
2018-10-06T19:17:38.502Z,59.00
2018-10-06T19:20:07.318Z,54.80
2018-10-06T19:22:35.792Z,59.03
2018-10-06T19:25:04.173Z,55.27
2018-10-06T19:27:32.826Z,57.60
2018-10-06T19:30:01.349Z,56.60
2018-10-06T19:32:29.960Z,56.00
2018-10-06T19:34:58.468Z,56.27
2018-10-06T19:37:26.915Z,55.87
2018-10-06T19:39:55.550Z,50.77
2018-10-06T19:42:24.146Z,46.60
2018-10-06T19:44:53.696Z,46.10
2018-10-06T19:47:22.254Z,45.23
2018-10-06T19:49:51.419Z,40.50
2018-10-06T19:52:20.000Z,41.33
2018-10-06T19:54:49.117Z,39.63
2018-10-06T19:57:19.352Z,35.60
2018-10-06T19:59:47.958Z,36.27
2018-10-06T20:02:16.465Z,39.90
2018-10-06T20:04:44.914Z,37.03
2018-10-06T20:07:13.405Z,40.43
2018-10-06T20:09:41.966Z,36.90
2018-10-06T20:12:10.902Z,38.83
2018-10-06T20:14:39.394Z,37.43
2018-10-06T20:17:08.091Z,34.87
2018-10-06T20:19:36.851Z,41.10
2018-10-06T20:22:06.783Z,38.73
2018-10-06T20:24:35.298Z,38.70
2018-10-06T20:27:04.637Z,38.63
2018-10-06T20:29:33.014Z,39.63
2018-10-06T20:32:01.454Z,31.70
2018-10-06T20:34:33.783Z,34.03
2018-10-06T20:37:02.658Z,33.70
2018-10-06T20:39:31.216Z,33.20
2018-10-06T20:41:59.965Z,28.33
2018-10-06T20:44:28.579Z,27.33
2018-10-06T20:46:57.093Z,30.10
2018-10-06T20:49:25.534Z,26.07
2018-10-06T20:51:55.631Z,29.93
2018-10-06T20:54:24.240Z,29.00
2018-10-06T20:56:52.851Z,25.47
2018-10-06T20:59:21.417Z,25.80
2018-10-06T21:01:49.783Z,33.87
2018-10-06T21:04:18.321Z,34.37
2018-10-06T21:06:46.829Z,26.87
2018-10-06T21:09:15.511Z,19.80
2018-10-06T21:11:43.877Z,28.07
2018-10-06T21:14:12.293Z,24.17
2018-10-06T21:16:42.088Z,24.70
2018-10-06T21:19:11.541Z,19.37
2018-10-06T21:21:41.211Z,18.27
2018-10-06T21:24:10.844Z,20.20
2018-10-06T21:26:40.187Z,21.50
2018-10-06T21:29:10.958Z,15.20
2018-10-06T21:31:40.325Z,20.40
2018-10-06T21:34:09.606Z,21.73
2018-10-06T21:36:39.046Z,18.23
2018-10-06T21:39:09.272Z,14.17
2018-10-06T21:41:39.112Z,10.83
2018-10-06T21:44:08.170Z,9.33
2018-10-06T21:46:37.576Z,7.43
2018-10-06T21:49:05.947Z,8.53
2018-10-06T21:51:34.407Z,6.30
2018-10-06T21:54:03.007Z,7.10
2018-10-06T21:56:31.869Z,8.93
2018-10-06T21:59:00.329Z,9.93
2018-10-06T22:01:28.855Z,11.97
2018-10-06T22:03:57.209Z,9.37
2018-10-06T22:06:25.787Z,10.10
2018-10-06T22:08:55.122Z,13.30
2018-10-06T22:11:23.786Z,10.03
2018-10-06T22:13:52.203Z,7.47
2018-10-06T22:16:20.981Z,7.50
2018-10-06T22:18:49.535Z,6.87
2018-10-06T22:21:18.083Z,3.87
2018-10-06T22:23:46.826Z,6.90
2018-10-06T22:26:15.497Z,7.67
2018-10-06T22:28:44.434Z,5.87
2018-10-06T22:31:13.908Z,10.03
2018-10-06T22:33:42.424Z,8.03
2018-10-06T22:36:11.064Z,4.93
2018-10-06T22:38:39.666Z,8.23
2018-10-06T22:41:08.216Z,7.33
2018-10-06T22:43:36.717Z,5.60
2018-10-06T22:46:05.114Z,4.23
2018-10-06T22:48:33.673Z,4.03
2018-10-06T22:51:02.214Z,5.70
2018-10-06T22:53:30.609Z,4.43
2018-10-06T22:55:59.187Z,6.47
2018-10-06T22:58:33.010Z,5.33
2018-10-06T23:01:01.522Z,9.20
2018-10-06T23:03:30.156Z,6.30
2018-10-06T23:05:58.684Z,4.47
2018-10-06T23:08:27.097Z,6.50
2018-10-06T23:10:55.447Z,5.50
2018-10-06T23:14:26.813Z,6.87
2018-10-06T23:16:55.307Z,6.77
2018-10-06T23:19:23.905Z,7.73
2018-10-06T23:21:52.379Z,3.63
2018-10-06T23:24:20.786Z,4.63
2018-10-06T23:26:49.110Z,4.47
2018-10-06T23:29:17.514Z,7.43
2018-10-06T23:31:45.917Z,6.77
2018-10-06T23:34:14.298Z,3.00
2018-10-06T23:36:42.647Z,4.97
2018-10-06T23:39:10.984Z,6.90
2018-10-06T23:41:39.457Z,4.67
2018-10-06T23:44:07.817Z,5.37
2018-10-06T23:46:36.248Z,5.67
2018-10-06T23:49:04.808Z,5.37
2018-10-06T23:51:33.406Z,3.10
2018-10-06T23:54:02.005Z,9.27
2018-10-06T23:56:30.436Z,4.10
2018-10-06T23:58:58.871Z,6.17
